sensor_id;sensor_type;location;lat;lon;timestamp;temperature;humidity
5466;DHT22;2755;50.728;7.108;2023-07-31T00:00:41;17.70;24.60
5466;DHT22;2755;50.728;7.108;2023-07-31T00:03:06;18.00;26.70
5466;DHT22;2755;50.728;7.108;2023-07-31T00:05:32;17.70;26.40
5466;DHT22;2755;50.728;7.108;2023-07-31T00:07:57;17.90;24.80
5466;DHT22;2755;50.728;7.108;2023-07-31T00:10:23;17.80;25.00
5466;DHT22;2755;50.728;7.108;2023-07-31T00:12:48;18.40;24.80
5466;DHT22;2755;50.728;7.108;2023-07-31T00:15:14;18.30;27.50
5466;DHT22;2755;50.728;7.108;2023-07-31T00:17:40;17.60;27.10
5466;DHT22;2755;50.728;7.108;2023-07-31T00:20:06;18.10;27.60
5466;DHT22;2755;50.728;7.108;2023-07-31T00:22:31;18.10;26.50
5466;DHT22;2755;50.728;7.108;2023-07-31T00:24:57;18.10;25.00
5466;DHT22;2755;50.728;7.108;2023-07-31T00:27:23;18.00;27.00
5466;DHT22;2755;50.728;7.108;2023-07-31T00:29:48;18.00;27.80
5466;DHT22;2755;50.728;7.108;2023-07-31T00:32:14;18.30;26.40
5466;DHT22;2755;50.728;7.108;2023-07-31T00:34:39;18.10;25.60
5466;DHT22;2755;50.728;7.108;2023-07-31T00:39:34;18.00;26.00
5466;DHT22;2755;50.728;7.108;2023-07-31T00:41:59;17.80;28.80
5466;DHT22;2755;50.728;7.108;2023-07-31T00:44:25;17.90;27.00
5466;DHT22;2755;50.728;7.108;2023-07-31T00:46:51;18.10;26.90
5466;DHT22;2755;50.728;7.108;2023-07-31T00:49:16;17.80;28.50
5466;DHT22;2755;50.728;7.108;2023-07-31T00:51:42;17.80;28.80
5466;DHT22;2755;50.728;7.108;2023-07-31T00:54:08;18.00;30.20
5466;DHT22;2755;50.728;7.108;2023-07-31T00:56:33;18.10;30.10
5466;DHT22;2755;50.728;7.108;2023-07-31T00:58:59;18.70;28.60
5466;DHT22;2755;50.728;7.108;2023-07-31T01:01:25;17.90;28.00
5466;DHT22;2755;50.728;7.108;2023-07-31T01:03:51;18.50;28.70
5466;DHT22;2755;50.728;7.108;2023-07-31T01:09:35;18.00;26.90
5466;DHT22;2755;50.728;7.108;2023-07-31T01:12:03;18.00;28.00
5466;DHT22;2755;50.728;7.108;2023-07-31T01:14:29;18.20;31.20
5466;DHT22;2755;50.728;7.108;2023-07-31T01:16:55;17.90;28.30
5466;DHT22;2755;50.728;7.108;2023-07-31T01:19:23;17.90;32.00
5466;DHT22;2755;50.728;7.108;2023-07-31T01:22:22;17.90;29.50
5466;DHT22;2755;50.728;7.108;2023-07-31T01:25:26;17.90;29.00
5466;DHT22;2755;50.728;7.108;2023-07-31T01:28:04;17.80;31.60
5466;DHT22;2755;50.728;7.108;2023-07-31T01:30:38;17.60;34.30
5466;DHT22;2755;50.728;7.108;2023-07-31T01:33:05;17.60;34.80
5466;DHT22;2755;50.728;7.108;2023-07-31T01:35:37;17.60;36.00
5466;DHT22;2755;50.728;7.108;2023-07-31T01:40:29;17.10;41.40
5466;DHT22;2755;50.728;7.108;2023-07-31T01:45:20;17.50;47.20
5466;DHT22;2755;50.728;7.108;2023-07-31T01:47:46;17.90;47.80
5466;DHT22;2755;50.728;7.108;2023-07-31T01:55:13;17.30;53.90
5466;DHT22;2755;50.728;7.108;2023-07-31T01:57:39;17.70;53.40
5466;DHT22;2755;50.728;7.108;2023-07-31T02:00:05;17.40;54.40
5466;DHT22;2755;50.728;7.108;2023-07-31T02:02:31;17.10;50.70
5466;DHT22;2755;50.728;7.108;2023-07-31T02:04:57;17.60;52.70
5466;DHT22;2755;50.728;7.108;2023-07-31T02:07:22;17.20;54.60
5466;DHT22;2755;50.728;7.108;2023-07-31T02:09:48;17.90;54.40
5466;DHT22;2755;50.728;7.108;2023-07-31T02:12:14;17.60;53.40
5466;DHT22;2755;50.728;7.108;2023-07-31T02:14:40;17.60;53.10
5466;DHT22;2755;50.728;7.108;2023-07-31T02:17:06;17.40;49.40
5466;DHT22;2755;50.728;7.108;2023-07-31T02:19:32;17.70;51.50
5466;DHT22;2755;50.728;7.108;2023-07-31T02:21:57;17.30;47.00
5466;DHT22;2755;50.728;7.108;2023-07-31T02:24:24;17.30;49.90
5466;DHT22;2755;50.728;7.108;2023-07-31T02:26:50;17.50;49.30
5466;DHT22;2755;50.728;7.108;2023-07-31T02:29:15;17.60;46.20
5466;DHT22;2755;50.728;7.108;2023-07-31T02:31:41;17.90;47.20
5466;DHT22;2755;50.728;7.108;2023-07-31T02:34:06;17.30;48.50
5466;DHT22;2755;50.728;7.108;2023-07-31T02:38:58;17.70;47.80
5466;DHT22;2755;50.728;7.108;2023-07-31T02:41:23;17.70;44.60
5466;DHT22;2755;50.728;7.108;2023-07-31T02:43:49;17.40;43.50
5466;DHT22;2755;50.728;7.108;2023-07-31T02:46:14;17.70;43.50
5466;DHT22;2755;50.728;7.108;2023-07-31T02:48:40;17.80;45.50
5466;DHT22;2755;50.728;7.108;2023-07-31T02:51:05;17.40;40.40
5466;DHT22;2755;50.728;7.108;2023-07-31T02:53:31;17.80;42.10
5466;DHT22;2755;50.728;7.108;2023-07-31T02:55:57;17.60;39.90
5466;DHT22;2755;50.728;7.108;2023-07-31T02:58:22;17.30;42.10
5466;DHT22;2755;50.728;7.108;2023-07-31T03:00:48;17.40;41.70
5466;DHT22;2755;50.728;7.108;2023-07-31T03:03:13;17.50;42.20
5466;DHT22;2755;50.728;7.108;2023-07-31T03:05:39;17.30;38.00
5466;DHT22;2755;50.728;7.108;2023-07-31T03:08:04;17.50;39.60
5466;DHT22;2755;50.728;7.108;2023-07-31T03:10:30;17.90;37.50
5466;DHT22;2755;50.728;7.108;2023-07-31T03:12:55;17.40;37.80
5466;DHT22;2755;50.728;7.108;2023-07-31T03:15:21;17.70;36.40
5466;DHT22;2755;50.728;7.108;2023-07-31T03:17:46;17.60;38.40
5466;DHT22;2755;50.728;7.108;2023-07-31T03:20:12;17.80;33.90
5466;DHT22;2755;50.728;7.108;2023-07-31T03:22:38;17.90;37.00
5466;DHT22;2755;50.728;7.108;2023-07-31T03:25:04;17.70;35.60
5466;DHT22;2755;50.728;7.108;2023-07-31T03:27:29;17.10;34.70
5466;DHT22;2755;50.728;7.108;2023-07-31T03:29:55;17.50;31.60
5466;DHT22;2755;50.728;7.108;2023-07-31T03:32:20;17.50;31.70
5466;DHT22;2755;50.728;7.108;2023-07-31T03:34:46;17.70;31.40
5466;DHT22;2755;50.728;7.108;2023-07-31T03:37:12;17.80;31.20
5466;DHT22;2755;50.728;7.108;2023-07-31T03:39:37;17.70;29.80
5466;DHT22;2755;50.728;7.108;2023-07-31T03:42:03;18.40;31.40
5466;DHT22;2755;50.728;7.108;2023-07-31T03:44:29;18.20;29.50
5466;DHT22;2755;50.728;7.108;2023-07-31T03:46:55;17.80;29.90
5466;DHT22;2755;50.728;7.108;2023-07-31T03:49:21;17.50;31.00
5466;DHT22;2755;50.728;7.108;2023-07-31T03:51:47;17.90;28.20
5466;DHT22;2755;50.728;7.108;2023-07-31T03:54:12;17.50;28.70
5466;DHT22;2755;50.728;7.108;2023-07-31T03:56:38;18.20;28.70
5466;DHT22;2755;50.728;7.108;2023-07-31T04:01:30;17.40;29.20
5466;DHT22;2755;50.728;7.108;2023-07-31T04:03:56;17.90;27.40
5466;DHT22;2755;50.728;7.108;2023-07-31T04:08:47;17.70;27.10
5466;DHT22;2755;50.728;7.108;2023-07-31T04:11:13;18.50;27.30
5466;DHT22;2755;50.728;7.108;2023-07-31T04:13:38;18.00;28.60
5466;DHT22;2755;50.728;7.108;2023-07-31T04:16:04;17.80;26.20
5466;DHT22;2755;50.728;7.108;2023-07-31T04:18:31;16.90;28.10
5466;DHT22;2755;50.728;7.108;2023-07-31T04:20:58;17.70;26.60
5466;DHT22;2755;50.728;7.108;2023-07-31T04:23:27;18.10;28.70
5466;DHT22;2755;50.728;7.108;2023-07-31T04:25:52;17.60;28.80
5466;DHT22;2755;50.728;7.108;2023-07-31T04:28:18;18.20;26.30
5466;DHT22;2755;50.728;7.108;2023-07-31T04:33:09;16.30;26.40
5466;DHT22;2755;50.728;7.108;2023-07-31T04:35:35;18.20;28.50
5466;DHT22;2755;50.728;7.108;2023-07-31T04:38:00;18.00;26.00
5466;DHT22;2755;50.728;7.108;2023-07-31T04:40:26;18.30;25.90
5466;DHT22;2755;50.728;7.108;2023-07-31T04:42:52;17.80;25.80
5466;DHT22;2755;50.728;7.108;2023-07-31T04:45:17;18.10;27.90
5466;DHT22;2755;50.728;7.108;2023-07-31T04:47:43;17.90;24.60
5466;DHT22;2755;50.728;7.108;2023-07-31T04:50:09;17.90;24.40
5466;DHT22;2755;50.728;7.108;2023-07-31T04:52:34;17.80;24.40
5466;DHT22;2755;50.728;7.108;2023-07-31T04:55:00;18.20;27.50
5466;DHT22;2755;50.728;7.108;2023-07-31T04:57:25;17.80;23.20
5466;DHT22;2755;50.728;7.108;2023-07-31T04:59:51;18.20;23.20
5466;DHT22;2755;50.728;7.108;2023-07-31T05:07:09;17.80;25.50
5466;DHT22;2755;50.728;7.108;2023-07-31T05:09:34;18.00;22.80
5466;DHT22;2755;50.728;7.108;2023-07-31T05:12:00;18.50;22.90
5466;DHT22;2755;50.728;7.108;2023-07-31T05:14:26;18.50;21.80
5466;DHT22;2755;50.728;7.108;2023-07-31T05:19:18;18.50;21.90
5466;DHT22;2755;50.728;7.108;2023-07-31T05:21:43;18.50;21.70
5466;DHT22;2755;50.728;7.108;2023-07-31T05:24:10;18.40;22.90
5466;DHT22;2755;50.728;7.108;2023-07-31T05:26:36;18.90;20.80
5466;DHT22;2755;50.728;7.108;2023-07-31T05:29:01;18.60;21.50
5466;DHT22;2755;50.728;7.108;2023-07-31T05:31:27;19.10;20.50
5466;DHT22;2755;50.728;7.108;2023-07-31T05:33:52;18.80;22.10
5466;DHT22;2755;50.728;7.108;2023-07-31T05:38:44;18.80;20.30
5466;DHT22;2755;50.728;7.108;2023-07-31T05:41:11;18.90;20.20
5466;DHT22;2755;50.728;7.108;2023-07-31T05:43:37;19.30;20.10
5466;DHT22;2755;50.728;7.108;2023-07-31T05:46:03;18.60;18.30
5466;DHT22;2755;50.728;7.108;2023-07-31T05:48:28;19.30;18.70
5466;DHT22;2755;50.728;7.108;2023-07-31T05:50:54;19.30;20.50
5466;DHT22;2755;50.728;7.108;2023-07-31T05:53:19;18.80;17.90
5466;DHT22;2755;50.728;7.108;2023-07-31T05:55:45;19.10;20.80
5466;DHT22;2755;50.728;7.108;2023-07-31T05:58:11;18.80;18.90
5466;DHT22;2755;50.728;7.108;2023-07-31T06:00:36;19.20;20.40
5466;DHT22;2755;50.728;7.108;2023-07-31T06:03:02;18.70;21.20
5466;DHT22;2755;50.728;7.108;2023-07-31T06:05:27;18.80;19.50
5466;DHT22;2755;50.728;7.108;2023-07-31T06:07:55;18.40;19.50
5466;DHT22;2755;50.728;7.108;2023-07-31T06:15:13;18.40;25.50
5466;DHT22;2755;50.728;7.108;2023-07-31T06:17:38;18.30;24.40
5466;DHT22;2755;50.728;7.108;2023-07-31T06:22:30;18.70;30.00
5466;DHT22;2755;50.728;7.108;2023-07-31T06:27:22;17.90;38.30
5466;DHT22;2755;50.728;7.108;2023-07-31T06:29:48;17.70;41.50
5466;DHT22;2755;50.728;7.108;2023-07-31T06:32:13;16.60;47.80
5466;DHT22;2755;50.728;7.108;2023-07-31T06:34:39;17.40;60.80
5466;DHT22;2755;50.728;7.108;2023-07-31T06:37:05;16.70;59.80
5466;DHT22;2755;50.728;7.108;2023-07-31T06:44:22;16.80;65.30
5466;DHT22;2755;50.728;7.108;2023-07-31T06:46:48;16.90;71.00
5466;DHT22;2755;50.728;7.108;2023-07-31T06:49:13;17.10;75.30
5466;DHT22;2755;50.728;7.108;2023-07-31T06:51:41;16.80;82.40
5466;DHT22;2755;50.728;7.108;2023-07-31T06:54:07;17.60;90.30
5466;DHT22;2755;50.728;7.108;2023-07-31T06:56:33;16.80;89.40
5466;DHT22;2755;50.728;7.108;2023-07-31T06:58:58;17.00;90.10
5466;DHT22;2755;50.728;7.108;2023-07-31T07:06:22;15.20;94.90
5466;DHT22;2755;50.728;7.108;2023-07-31T07:08:48;17.20;95.80
5466;DHT22;2755;50.728;7.108;2023-07-31T07:18:32;18.70;95.10
5466;DHT22;2755;50.728;7.108;2023-07-31T07:20:58;19.10;78.70
5466;DHT22;2755;50.728;7.108;2023-07-31T07:25:50;18.90;75.00
5466;DHT22;2755;50.728;7.108;2023-07-31T07:28:16;18.90;74.00
5466;DHT22;2755;50.728;7.108;2023-07-31T07:33:08;18.90;72.70
5466;DHT22;2755;50.728;7.108;2023-07-31T07:38:01;19.10;73.20
5466;DHT22;2755;50.728;7.108;2023-07-31T07:40:27;18.70;72.50
5466;DHT22;2755;50.728;7.108;2023-07-31T07:42:52;18.50;81.20
5466;DHT22;2755;50.728;7.108;2023-07-31T07:47:44;17.90;78.40
5466;DHT22;2755;50.728;7.108;2023-07-31T07:50:09;18.00;78.30
5466;DHT22;2755;50.728;7.108;2023-07-31T07:52:35;17.70;86.40
5466;DHT22;2755;50.728;7.108;2023-07-31T07:55:01;18.30;90.80
5466;DHT22;2755;50.728;7.108;2023-07-31T07:57:27;17.80;90.40
5466;DHT22;2755;50.728;7.108;2023-07-31T08:02:18;16.90;96.70
5466;DHT22;2755;50.728;7.108;2023-07-31T08:04:44;17.10;95.50
5466;DHT22;2755;50.728;7.108;2023-07-31T08:07:12;17.30;96.70
5466;DHT22;2755;50.728;7.108;2023-07-31T08:12:05;17.40;99.10
5466;DHT22;2755;50.728;7.108;2023-07-31T08:14:30;16.90;99.30
5466;DHT22;2755;50.728;7.108;2023-07-31T08:16:56;17.30;99.90
5466;DHT22;2755;50.728;7.108;2023-07-31T08:19:22;16.90;99.90
5466;DHT22;2755;50.728;7.108;2023-07-31T08:24:13;16.70;99.90
5466;DHT22;2755;50.728;7.108;2023-07-31T08:29:05;17.50;99.90
5466;DHT22;2755;50.728;7.108;2023-07-31T08:31:31;16.90;99.90
5466;DHT22;2755;50.728;7.108;2023-07-31T08:36:23;17.70;99.90
5466;DHT22;2755;50.728;7.108;2023-07-31T08:38:48;17.20;99.90
5466;DHT22;2755;50.728;7.108;2023-07-31T08:41:15;17.00;99.90
5466;DHT22;2755;50.728;7.108;2023-07-31T08:43:44;18.20;99.90
5466;DHT22;2755;50.728;7.108;2023-07-31T08:48:37;16.80;99.90
5466;DHT22;2755;50.728;7.108;2023-07-31T08:51:06;17.00;99.90
5466;DHT22;2755;50.728;7.108;2023-07-31T08:53:32;17.10;99.90
5466;DHT22;2755;50.728;7.108;2023-07-31T08:55:59;17.80;99.90
5466;DHT22;2755;50.728;7.108;2023-07-31T08:58:25;16.50;99.90
5466;DHT22;2755;50.728;7.108;2023-07-31T09:00:53;16.00;99.90
5466;DHT22;2755;50.728;7.108;2023-07-31T09:03:22;16.70;99.90
5466;DHT22;2755;50.728;7.108;2023-07-31T09:05:48;17.10;99.90
5466;DHT22;2755;50.728;7.108;2023-07-31T09:08:17;17.00;99.90
5466;DHT22;2755;50.728;7.108;2023-07-31T09:10:44;16.50;99.90
5466;DHT22;2755;50.728;7.108;2023-07-31T09:13:12;16.70;99.90
5466;DHT22;2755;50.728;7.108;2023-07-31T09:15:39;16.80;99.90
5466;DHT22;2755;50.728;7.108;2023-07-31T09:18:06;17.20;99.90
5466;DHT22;2755;50.728;7.108;2023-07-31T09:20:32;16.80;99.90
5466;DHT22;2755;50.728;7.108;2023-07-31T09:23:07;16.30;99.90
5466;DHT22;2755;50.728;7.108;2023-07-31T09:28:01;17.00;99.90
5466;DHT22;2755;50.728;7.108;2023-07-31T09:30:27;17.20;99.90
5466;DHT22;2755;50.728;7.108;2023-07-31T09:33:06;17.20;99.90
5466;DHT22;2755;50.728;7.108;2023-07-31T09:35:38;17.30;99.90
5466;DHT22;2755;50.728;7.108;2023-07-31T09:38:11;17.50;99.90
5466;DHT22;2755;50.728;7.108;2023-07-31T09:40:39;17.40;99.90
5466;DHT22;2755;50.728;7.108;2023-07-31T09:43:21;17.50;99.90
5466;DHT22;2755;50.728;7.108;2023-07-31T09:45:47;17.20;99.90
5466;DHT22;2755;50.728;7.108;2023-07-31T09:48:17;17.40;99.90
5466;DHT22;2755;50.728;7.108;2023-07-31T09:50:48;17.60;99.90
5466;DHT22;2755;50.728;7.108;2023-07-31T09:53:14;17.40;99.90
5466;DHT22;2755;50.728;7.108;2023-07-31T09:55:41;17.50;99.90
5466;DHT22;2755;50.728;7.108;2023-07-31T09:58:09;17.00;99.90
5466;DHT22;2755;50.728;7.108;2023-07-31T10:00:35;17.40;99.90
5466;DHT22;2755;50.728;7.108;2023-07-31T10:05:40;17.60;99.90
5466;DHT22;2755;50.728;7.108;2023-07-31T10:08:07;18.00;99.90
5466;DHT22;2755;50.728;7.108;2023-07-31T10:10:36;18.70;99.90
5466;DHT22;2755;50.728;7.108;2023-07-31T10:15:28;18.50;99.90
5466;DHT22;2755;50.728;7.108;2023-07-31T10:17:55;18.60;99.90
5466;DHT22;2755;50.728;7.108;2023-07-31T10:20:21;18.40;99.90
5466;DHT22;2755;50.728;7.108;2023-07-31T10:22:48;18.80;99.90
5466;DHT22;2755;50.728;7.108;2023-07-31T10:25:15;18.90;99.90
5466;DHT22;2755;50.728;7.108;2023-07-31T10:30:12;19.10;99.90
5466;DHT22;2755;50.728;7.108;2023-07-31T10:32:41;19.40;99.90
5466;DHT22;2755;50.728;7.108;2023-07-31T10:35:08;19.90;99.90
5466;DHT22;2755;50.728;7.108;2023-07-31T10:37:41;20.10;98.30
5466;DHT22;2755;50.728;7.108;2023-07-31T10:40:25;20.50;74.80
5466;DHT22;2755;50.728;7.108;2023-07-31T10:42:57;20.80;68.00
5466;DHT22;2755;50.728;7.108;2023-07-31T10:45:34;21.20;71.70
5466;DHT22;2755;50.728;7.108;2023-07-31T10:48:07;21.40;63.90
5466;DHT22;2755;50.728;7.108;2023-07-31T10:50:38;22.00;40.60
5466;DHT22;2755;50.728;7.108;2023-07-31T10:53:04;21.70;42.40
5466;DHT22;2755;50.728;7.108;2023-07-31T10:55:42;22.10;29.50
5466;DHT22;2755;50.728;7.108;2023-07-31T10:58:13;21.80;24.20
5466;DHT22;2755;50.728;7.108;2023-07-31T11:00:41;21.80;22.00
5466;DHT22;2755;50.728;7.108;2023-07-31T11:03:17;21.50;19.80
5466;DHT22;2755;50.728;7.108;2023-07-31T11:05:50;21.00;18.50
5466;DHT22;2755;50.728;7.108;2023-07-31T11:08:19;21.60;22.80
5466;DHT22;2755;50.728;7.108;2023-07-31T11:10:47;21.40;19.10
5466;DHT22;2755;50.728;7.108;2023-07-31T11:13:14;22.00;19.70
5466;DHT22;2755;50.728;7.108;2023-07-31T11:15:39;21.80;17.70
5466;DHT22;2755;50.728;7.108;2023-07-31T11:18:05;21.80;12.70
5466;DHT22;2755;50.728;7.108;2023-07-31T11:23:01;21.80;14.20
5466;DHT22;2755;50.728;7.108;2023-07-31T11:25:31;22.10;16.40
5466;DHT22;2755;50.728;7.108;2023-07-31T11:28:05;21.30;13.80
5466;DHT22;2755;50.728;7.108;2023-07-31T11:32:57;21.10;14.40
5466;DHT22;2755;50.728;7.108;2023-07-31T11:42:41;20.90;26.30
5466;DHT22;2755;50.728;7.108;2023-07-31T11:45:10;21.10;24.80
5466;DHT22;2755;50.728;7.108;2023-07-31T11:47:39;20.80;28.00
5466;DHT22;2755;50.728;7.108;2023-07-31T11:50:08;21.50;32.00
5466;DHT22;2755;50.728;7.108;2023-07-31T11:52:43;21.30;26.40
5466;DHT22;2755;50.728;7.108;2023-07-31T11:55:13;21.90;26.30
5466;DHT22;2755;50.728;7.108;2023-07-31T11:57:49;22.10;24.10
5466;DHT22;2755;50.728;7.108;2023-07-31T12:00:18;22.20;23.10
5466;DHT22;2755;50.728;7.108;2023-07-31T12:02:46;22.50;24.10
5466;DHT22;2755;50.728;7.108;2023-07-31T12:05:24;22.60;21.00
5466;DHT22;2755;50.728;7.108;2023-07-31T12:07:55;22.90;17.60
5466;DHT22;2755;50.728;7.108;2023-07-31T12:10:29;22.40;12.80
5466;DHT22;2755;50.728;7.108;2023-07-31T12:13:07;22.90;6.20
5466;DHT22;2755;50.728;7.108;2023-07-31T12:15:55;23.10;5.60
5466;DHT22;2755;50.728;7.108;2023-07-31T12:18:29;23.70;1.80
5466;DHT22;2755;50.728;7.108;2023-07-31T12:21:02;23.00;1.30
5466;DHT22;2755;50.728;7.108;2023-07-31T12:23:32;23.90;1.00
5466;DHT22;2755;50.728;7.108;2023-07-31T12:31:02;24.50;1.00
5466;DHT22;2755;50.728;7.108;2023-07-31T12:33:35;24.30;1.00
5466;DHT22;2755;50.728;7.108;2023-07-31T12:36:17;24.70;1.00
5466;DHT22;2755;50.728;7.108;2023-07-31T12:38:44;24.40;1.00
5466;DHT22;2755;50.728;7.108;2023-07-31T12:41:13;24.40;1.00
5466;DHT22;2755;50.728;7.108;2023-07-31T12:43:41;24.00;1.00
5466;DHT22;2755;50.728;7.108;2023-07-31T12:46:12;25.10;1.00
5466;DHT22;2755;50.728;7.108;2023-07-31T12:48:39;23.90;1.00
5466;DHT22;2755;50.728;7.108;2023-07-31T12:51:05;23.60;1.00
5466;DHT22;2755;50.728;7.108;2023-07-31T12:53:36;23.70;1.00
5466;DHT22;2755;50.728;7.108;2023-07-31T12:56:02;23.10;1.00
5466;DHT22;2755;50.728;7.108;2023-07-31T12:58:28;23.10;1.00
5466;DHT22;2755;50.728;7.108;2023-07-31T13:00:54;23.00;1.00
5466;DHT22;2755;50.728;7.108;2023-07-31T13:03:26;22.90;1.00
5466;DHT22;2755;50.728;7.108;2023-07-31T13:05:52;22.80;1.00
5466;DHT22;2755;50.728;7.108;2023-07-31T13:08:21;22.40;1.00
5466;DHT22;2755;50.728;7.108;2023-07-31T13:11:18;22.70;1.00
5466;DHT22;2755;50.728;7.108;2023-07-31T13:13:54;22.80;1.00
5466;DHT22;2755;50.728;7.108;2023-07-31T13:16:23;22.90;1.00
5466;DHT22;2755;50.728;7.108;2023-07-31T13:23:56;23.20;1.00
5466;DHT22;2755;50.728;7.108;2023-07-31T13:26:23;23.20;1.00
5466;DHT22;2755;50.728;7.108;2023-07-31T13:28:52;23.30;1.00
5466;DHT22;2755;50.728;7.108;2023-07-31T13:31:18;23.00;1.00
5466;DHT22;2755;50.728;7.108;2023-07-31T13:33:46;23.00;1.00
5466;DHT22;2755;50.728;7.108;2023-07-31T13:36:17;23.00;1.00
5466;DHT22;2755;50.728;7.108;2023-07-31T13:38:52;23.10;1.00
5466;DHT22;2755;50.728;7.108;2023-07-31T13:41:20;21.50;1.00
5466;DHT22;2755;50.728;7.108;2023-07-31T13:43:46;22.90;1.00
5466;DHT22;2755;50.728;7.108;2023-07-31T13:48:54;23.10;1.00
5466;DHT22;2755;50.728;7.108;2023-07-31T13:51:30;22.50;1.00
5466;DHT22;2755;50.728;7.108;2023-07-31T13:53:56;22.80;1.00
5466;DHT22;2755;50.728;7.108;2023-07-31T13:58:54;23.30;1.00
5466;DHT22;2755;50.728;7.108;2023-07-31T14:01:33;23.30;1.00
5466;DHT22;2755;50.728;7.108;2023-07-31T14:03:59;23.70;1.00
5466;DHT22;2755;50.728;7.108;2023-07-31T14:06:28;23.80;1.00
5466;DHT22;2755;50.728;7.108;2023-07-31T14:11:24;23.70;1.00
5466;DHT22;2755;50.728;7.108;2023-07-31T14:19:17;24.00;1.00
5466;DHT22;2755;50.728;7.108;2023-07-31T14:21:48;24.10;1.00
5466;DHT22;2755;50.728;7.108;2023-07-31T14:24:16;24.10;1.00
5466;DHT22;2755;50.728;7.108;2023-07-31T14:34:03;23.20;1.00
5466;DHT22;2755;50.728;7.108;2023-07-31T14:36:29;23.30;1.00
5466;DHT22;2755;50.728;7.108;2023-07-31T14:39:03;22.70;1.00
5466;DHT22;2755;50.728;7.108;2023-07-31T14:41:29;23.20;1.00
5466;DHT22;2755;50.728;7.108;2023-07-31T14:43:55;21.90;1.00
5466;DHT22;2755;50.728;7.108;2023-07-31T14:46:24;21.60;1.00
5466;DHT22;2755;50.728;7.108;2023-07-31T14:48:50;22.30;1.00
5466;DHT22;2755;50.728;7.108;2023-07-31T14:51:20;22.00;1.00
5466;DHT22;2755;50.728;7.108;2023-07-31T14:56:18;21.70;1.00
5466;DHT22;2755;50.728;7.108;2023-07-31T14:58:47;21.40;1.00
5466;DHT22;2755;50.728;7.108;2023-07-31T15:01:15;21.60;1.00
5466;DHT22;2755;50.728;7.108;2023-07-31T15:03:46;21.60;1.00
5466;DHT22;2755;50.728;7.108;2023-07-31T15:06:20;21.70;1.00
5466;DHT22;2755;50.728;7.108;2023-07-31T15:13:40;21.70;1.90
5466;DHT22;2755;50.728;7.108;2023-07-31T15:16:05;22.20;2.10
5466;DHT22;2755;50.728;7.108;2023-07-31T15:18:34;21.50;1.40
5466;DHT22;2755;50.728;7.108;2023-07-31T15:21:03;21.00;1.00
5466;DHT22;2755;50.728;7.108;2023-07-31T15:26:04;21.10;1.00
5466;DHT22;2755;50.728;7.108;2023-07-31T15:28:31;21.20;4.30
5466;DHT22;2755;50.728;7.108;2023-07-31T15:30:58;21.60;1.50
5466;DHT22;2755;50.728;7.108;2023-07-31T15:33:24;21.20;2.00
5466;DHT22;2755;50.728;7.108;2023-07-31T15:35:50;20.80;5.80
5466;DHT22;2755;50.728;7.108;2023-07-31T15:38:16;21.00;4.10
5466;DHT22;2755;50.728;7.108;2023-07-31T15:40:44;21.20;6.30
5466;DHT22;2755;50.728;7.108;2023-07-31T15:43:28;21.00;3.80
5466;DHT22;2755;50.728;7.108;2023-07-31T15:48:37;21.60;3.10
5466;DHT22;2755;50.728;7.108;2023-07-31T15:51:13;21.60;1.90
5466;DHT22;2755;50.728;7.108;2023-07-31T15:53:44;21.80;1.50
5466;DHT22;2755;50.728;7.108;2023-07-31T15:56:20;21.60;1.00
5466;DHT22;2755;50.728;7.108;2023-07-31T15:58:49;21.30;1.00
5466;DHT22;2755;50.728;7.108;2023-07-31T16:06:28;20.50;3.40
5466;DHT22;2755;50.728;7.108;2023-07-31T16:13:46;20.60;6.60
5466;DHT22;2755;50.728;7.108;2023-07-31T16:16:13;20.10;8.20
5466;DHT22;2755;50.728;7.108;2023-07-31T16:18:41;20.80;10.80
5466;DHT22;2755;50.728;7.108;2023-07-31T16:21:13;20.30;14.40
5466;DHT22;2755;50.728;7.108;2023-07-31T16:23:39;19.50;19.90
5466;DHT22;2755;50.728;7.108;2023-07-31T16:28:32;18.80;31.20
5466;DHT22;2755;50.728;7.108;2023-07-31T16:31:01;18.50;38.60
5466;DHT22;2755;50.728;7.108;2023-07-31T16:35:55;18.20;59.70
5466;DHT22;2755;50.728;7.108;2023-07-31T16:40:54;18.40;73.70
5466;DHT22;2755;50.728;7.108;2023-07-31T16:43:32;17.60;83.50
5466;DHT22;2755;50.728;7.108;2023-07-31T16:46:08;17.60;92.60
5466;DHT22;2755;50.728;7.108;2023-07-31T16:48:51;17.40;92.70
5466;DHT22;2755;50.728;7.108;2023-07-31T16:51:20;17.60;98.40
5466;DHT22;2755;50.728;7.108;2023-07-31T16:53:52;16.90;96.70
5466;DHT22;2755;50.728;7.108;2023-07-31T16:56:23;16.90;99.10
5466;DHT22;2755;50.728;7.108;2023-07-31T16:58:51;17.70;99.90
5466;DHT22;2755;50.728;7.108;2023-07-31T17:01:17;17.10;99.90
5466;DHT22;2755;50.728;7.108;2023-07-31T17:06:18;17.10;99.90
5466;DHT22;2755;50.728;7.108;2023-07-31T17:08:45;17.10;99.90
5466;DHT22;2755;50.728;7.108;2023-07-31T17:11:17;17.20;99.90
5466;DHT22;2755;50.728;7.108;2023-07-31T17:13:43;17.10;99.90
5466;DHT22;2755;50.728;7.108;2023-07-31T17:16:12;17.20;99.90
5466;DHT22;2755;50.728;7.108;2023-07-31T17:18:38;17.10;99.90
5466;DHT22;2755;50.728;7.108;2023-07-31T17:26:09;16.90;99.90
5466;DHT22;2755;50.728;7.108;2023-07-31T17:31:07;17.30;99.90
5466;DHT22;2755;50.728;7.108;2023-07-31T17:36:09;17.20;99.90
5466;DHT22;2755;50.728;7.108;2023-07-31T17:38:38;16.80;99.90
5466;DHT22;2755;50.728;7.108;2023-07-31T17:41:05;16.70;99.90
5466;DHT22;2755;50.728;7.108;2023-07-31T17:53:23;17.30;99.90
5466;DHT22;2755;50.728;7.108;2023-07-31T17:55:49;17.20;99.90
5466;DHT22;2755;50.728;7.108;2023-07-31T17:58:15;16.60;99.90
5466;DHT22;2755;50.728;7.108;2023-07-31T18:00:45;16.90;99.90
5466;DHT22;2755;50.728;7.108;2023-07-31T18:03:11;17.00;99.90
5466;DHT22;2755;50.728;7.108;2023-07-31T18:05:41;17.40;99.90
5466;DHT22;2755;50.728;7.108;2023-07-31T18:10:33;16.90;99.90
5466;DHT22;2755;50.728;7.108;2023-07-31T18:12:59;17.10;99.90
5466;DHT22;2755;50.728;7.108;2023-07-31T18:17:55;16.60;99.90
5466;DHT22;2755;50.728;7.108;2023-07-31T18:20:21;17.20;99.90
5466;DHT22;2755;50.728;7.108;2023-07-31T18:22:49;17.10;99.90
5466;DHT22;2755;50.728;7.108;2023-07-31T18:25:15;16.20;99.90
5466;DHT22;2755;50.728;7.108;2023-07-31T18:27:47;16.70;99.90
5466;DHT22;2755;50.728;7.108;2023-07-31T18:30:13;16.40;99.90
5466;DHT22;2755;50.728;7.108;2023-07-31T18:32:42;16.90;99.90
5466;DHT22;2755;50.728;7.108;2023-07-31T18:35:13;16.70;99.90
5466;DHT22;2755;50.728;7.108;2023-07-31T18:37:47;15.90;99.90
5466;DHT22;2755;50.728;7.108;2023-07-31T18:40:23;17.00;99.90
5466;DHT22;2755;50.728;7.108;2023-07-31T18:42:52;16.70;99.90
5466;DHT22;2755;50.728;7.108;2023-07-31T18:47:54;15.90;99.90
5466;DHT22;2755;50.728;7.108;2023-07-31T18:50:25;16.70;99.90
5466;DHT22;2755;50.728;7.108;2023-07-31T18:52:51;16.90;99.90
5466;DHT22;2755;50.728;7.108;2023-07-31T18:55:22;16.60;99.90
5466;DHT22;2755;50.728;7.108;2023-07-31T18:57:57;16.70;99.90
5466;DHT22;2755;50.728;7.108;2023-07-31T19:07:46;17.60;99.90
5466;DHT22;2755;50.728;7.108;2023-07-31T19:10:12;16.80;99.90
5466;DHT22;2755;50.728;7.108;2023-07-31T19:12:40;17.00;99.90
5466;DHT22;2755;50.728;7.108;2023-07-31T19:15:09;16.70;99.90
5466;DHT22;2755;50.728;7.108;2023-07-31T19:22:40;16.60;99.90
5466;DHT22;2755;50.728;7.108;2023-07-31T19:25:10;16.80;99.90
5466;DHT22;2755;50.728;7.108;2023-07-31T19:27:38;16.60;99.90
5466;DHT22;2755;50.728;7.108;2023-07-31T19:30:08;17.20;99.90
5466;DHT22;2755;50.728;7.108;2023-07-31T19:32:33;16.50;99.90
5466;DHT22;2755;50.728;7.108;2023-07-31T19:35:07;16.50;99.90
5466;DHT22;2755;50.728;7.108;2023-07-31T19:37:35;16.60;99.90
5466;DHT22;2755;50.728;7.108;2023-07-31T19:40:01;16.00;99.90